Time;durP1;ratioP1;P1;durP2;ratioP2;P2;SDS_P1;SDS_P2;PMS_P1;PMS_P2;Temp;Humidity;BMP_temperature;BMP_pressure;BME280_temperature;BME280_humidity;BME280_pressure;Samples;Min_cycle;Max_cycle;Signal;HPM_P1;HPM_P2
2021/08/09 00:00:08;;;;;;;2.40;1.50;;;;;;;;;;5008039;28;20053;-64
2021/08/09 00:02:34;;;;;;;2.55;1.48;;;;;;;;;;5004117;28;20380;-64
2021/08/09 00:05:00;;;;;;;3.63;1.80;;;;;;;;;;5010402;28;20070;-64
2021/08/09 00:07:26;;;;;;;3.47;1.70;;;;;;;;;;5011939;28;20037;-64
2021/08/09 00:09:53;;;;;;;3.38;2.00;;;;;;;;;;5007921;28;20061;-64
2021/08/09 00:12:20;;;;;;;3.88;1.55;;;;;;;;;;5014456;28;20105;-65
2021/08/09 00:14:46;;;;;;;4.68;1.90;;;;;;;;;;5013966;28;20037;-65
2021/08/09 00:17:12;;;;;;;2.03;1.55;;;;;;;;;;5008675;28;20414;-65
2021/08/09 00:19:38;;;;;;;3.83;1.65;;;;;;;;;;5000659;28;20651;-65
2021/08/09 00:22:04;;;;;;;3.20;1.48;;;;;;;;;;5012129;28;20053;-65
2021/08/09 00:24:30;;;;;;;3.72;1.48;;;;;;;;;;5013551;28;20507;-65
2021/08/09 00:26:56;;;;;;;3.33;1.55;;;;;;;;;;5013811;28;20034;-65
2021/08/09 00:29:22;;;;;;;4.75;2.03;;;;;;;;;;5001697;28;20045;-65
2021/08/09 00:31:48;;;;;;;2.55;1.77;;;;;;;;;;5013885;28;20034;-65
2021/08/09 00:34:14;;;;;;;2.55;1.77;;;;;;;;;;5013499;28;20045;-65
2021/08/09 00:36:40;;;;;;;2.55;1.25;;;;;;;;;;5011083;28;20026;-65
2021/08/09 00:39:06;;;;;;;5.57;2.17;;;;;;;;;;5012394;28;20112;-65
2021/08/09 00:41:32;;;;;;;3.25;1.75;;;;;;;;;;4988315;28;20105;-65
2021/08/09 00:43:58;;;;;;;2.97;1.45;;;;;;;;;;5007311;28;20030;-65
2021/08/09 00:46:24;;;;;;;4.38;1.33;;;;;;;;;;5002029;28;20030;-65
2021/08/09 00:48:50;;;;;;;2.60;1.33;;;;;;;;;;5000086;28;20034;-65
2021/08/09 00:51:16;;;;;;;5.65;1.77;;;;;;;;;;5010045;28;20160;-65
2021/08/09 00:53:43;;;;;;;2.67;1.30;;;;;;;;;;5009430;28;20036;-65
2021/08/09 00:56:09;;;;;;;3.40;1.77;;;;;;;;;;5013282;28;20521;-65
2021/08/09 00:58:35;;;;;;;2.95;1.65;;;;;;;;;;5007166;28;20026;-65
2021/08/09 01:01:01;;;;;;;2.08;1.30;;;;;;;;;;5013178;28;20184;-65
2021/08/09 01:03:27;;;;;;;3.30;1.73;;;;;;;;;;5020091;28;20172;-65
2021/08/09 01:05:53;;;;;;;4.07;1.40;;;;;;;;;;5008911;28;20025;-65
2021/08/09 01:08:38;;;;;;;2.22;1.73;;;;;;;;;;5012246;28;20030;-65
2021/08/09 01:11:10;;;;;;;3.83;1.30;;;;;;;;;;5012949;28;20041;-65
2021/08/09 01:13:42;;;;;;;2.17;1.35;;;;;;;;;;5012818;28;20465;-65
2021/08/09 01:16:09;;;;;;;4.60;1.95;;;;;;;;;;5013288;28;20225;-65
2021/08/09 01:18:37;;;;;;;2.50;1.45;;;;;;;;;;5006483;28;20117;-65
2021/08/09 01:21:05;;;;;;;2.22;1.40;;;;;;;;;;5004099;28;20030;-65
2021/08/09 01:23:34;;;;;;;2.97;1.20;;;;;;;;;;5011358;28;20434;-65
2021/08/09 01:26:04;;;;;;;2.67;1.55;;;;;;;;;;5008170;28;20101;-65
2021/08/09 01:28:32;;;;;;;4.68;1.60;;;;;;;;;;5005848;28;20084;-65
2021/08/09 01:31:00;;;;;;;2.40;1.60;;;;;;;;;;5001986;28;20377;-65
2021/08/09 01:33:26;;;;;;;3.92;1.80;;;;;;;;;;5006923;28;20113;-65
2021/08/09 01:35:54;;;;;;;3.03;1.65;;;;;;;;;;4999942;28;20066;-65
2021/08/09 01:38:21;;;;;;;5.00;1.98;;;;;;;;;;5011969;28;20030;-65
2021/08/09 01:40:48;;;;;;;6.72;1.70;;;;;;;;;;5002292;28;20112;-65
2021/08/09 01:43:15;;;;;;;5.13;2.00;;;;;;;;;;5001183;28;20022;-64
2021/08/09 01:45:41;;;;;;;3.35;1.42;;;;;;;;;;5012223;28;20073;-64
2021/08/09 01:48:09;;;;;;;5.40;1.45;;;;;;;;;;5004137;28;20041;-64
2021/08/09 01:50:35;;;;;;;1.80;1.40;;;;;;;;;;5007684;28;20025;-64
2021/08/09 01:53:01;;;;;;;3.17;1.88;;;;;;;;;;5003814;28;20117;-64
2021/08/09 01:55:28;;;;;;;2.00;1.35;;;;;;;;;;5012375;28;20033;-64
2021/08/09 01:57:54;;;;;;;2.60;1.50;;;;;;;;;;5012009;28;20079;-64
2021/08/09 02:00:20;;;;;;;2.15;1.45;;;;;;;;;;4999905;28;20101;-64
2021/08/09 02:02:48;;;;;;;1.45;1.30;;;;;;;;;;5009538;28;20049;-64
2021/08/09 02:05:17;;;;;;;2.55;1.50;;;;;;;;;;5008409;28;20101;-64
2021/08/09 02:07:45;;;;;;;3.30;1.75;;;;;;;;;;5010493;28;20120;-64
2021/08/09 02:10:12;;;;;;;3.30;1.85;;;;;;;;;;4998873;28;20461;-64
2021/08/09 02:12:48;;;;;;;2.42;1.50;;;;;;;;;;5026074;28;20029;-64
2021/08/09 02:15:15;;;;;;;4.47;1.85;;;;;;;;;;5010848;28;20140;-64
2021/08/09 02:17:49;;;;;;;2.22;1.40;;;;;;;;;;5011529;28;20113;-64
2021/08/09 02:20:15;;;;;;;;;;;;;;;;;;5004000;28;20033;-64
2021/08/09 02:22:43;;;;;;;1.75;1.45;;;;;;;;;;5006217;28;19956;-64
2021/08/09 02:25:12;;;;;;;1.42;1.17;;;;;;;;;;5011762;28;20084;-64
2021/08/09 02:27:46;;;;;;;2.28;1.77;;;;;;;;;;5011600;28;20033;-64
2021/08/09 02:30:12;;;;;;;2.58;1.48;;;;;;;;;;5011682;28;20032;-64
2021/08/09 02:32:39;;;;;;;2.60;1.27;;;;;;;;;;4995553;28;20030;-65
2021/08/09 02:35:07;;;;;;;3.72;1.63;;;;;;;;;;4999826;28;20493;-65
2021/08/09 02:37:33;;;;;;;4.47;1.92;;;;;;;;;;5010699;28;20025;-64
2021/08/09 02:40:00;;;;;;;2.28;1.80;;;;;;;;;;4999414;28;20104;-64
2021/08/09 02:42:26;;;;;;;1.80;1.50;;;;;;;;;;5009577;28;20030;-64
2021/08/09 02:44:53;;;;;;;4.45;2.03;;;;;;;;;;5000474;28;20038;-64
2021/08/09 02:47:19;;;;;;;3.08;1.20;;;;;;;;;;5010307;28;20029;-64
2021/08/09 02:49:47;;;;;;;7.30;1.75;;;;;;;;;;5010370;28;20108;-64
2021/08/09 02:52:14;;;;;;;4.88;1.83;;;;;;;;;;5009707;28;20109;-64
2021/08/09 02:54:40;;;;;;;2.85;1.52;;;;;;;;;;5011036;28;20033;-64
2021/08/09 02:57:07;;;;;;;2.95;1.60;;;;;;;;;;5026521;28;20491;-64
2021/08/09 02:59:35;;;;;;;2.75;1.70;;;;;;;;;;5011285;28;20033;-64
2021/08/09 03:02:02;;;;;;;3.30;1.63;;;;;;;;;;5010228;28;20083;-64
2021/08/09 03:04:29;;;;;;;1.92;1.70;;;;;;;;;;5006468;28;20371;-64
2021/08/09 03:06:56;;;;;;;4.70;1.80;;;;;;;;;;5006893;28;20096;-64
2021/08/09 03:09:22;;;;;;;4.45;1.40;;;;;;;;;;5001420;28;20530;-64
2021/08/09 03:11:48;;;;;;;2.40;1.65;;;;;;;;;;5011831;28;20478;-64
2021/08/09 03:14:21;;;;;;;3.95;1.65;;;;;;;;;;5001534;28;20100;-65
2021/08/09 03:16:48;;;;;;;3.20;1.70;;;;;;;;;;5010991;28;20029;-65
2021/08/09 03:19:14;;;;;;;2.00;1.55;;;;;;;;;;5014632;28;20481;-65
2021/08/09 03:21:39;;;;;;;2.65;1.95;;;;;;;;;;5014648;28;20034;-64
2021/08/09 03:24:05;;;;;;;3.85;1.48;;;;;;;;;;5005963;28;20057;-64
2021/08/09 03:26:31;;;;;;;3.33;1.77;;;;;;;;;;5010465;28;20030;-64
2021/08/09 03:28:57;;;;;;;4.28;1.80;;;;;;;;;;5005472;28;20034;-64
2021/08/09 03:31:23;;;;;;;2.67;1.60;;;;;;;;;;5013166;28;20022;-64
2021/08/09 03:33:49;;;;;;;2.80;1.50;;;;;;;;;;5026948;28;20096;-64
2021/08/09 03:36:15;;;;;;;1.95;1.50;;;;;;;;;;5014420;28;20114;-64
2021/08/09 03:38:41;;;;;;;3.72;1.80;;;;;;;;;;5004385;28;20037;-64
2021/08/09 03:41:07;;;;;;;3.63;1.90;;;;;;;;;;5011393;28;20030;-64
2021/08/09 03:43:33;;;;;;;2.40;2.05;;;;;;;;;;5014733;28;20026;-64
2021/08/09 03:45:59;;;;;;;4.90;1.70;;;;;;;;;;5003186;28;20014;-64
2021/08/09 03:48:25;;;;;;;3.90;2.08;;;;;;;;;;5012756;28;20022;-64
2021/08/09 03:50:51;;;;;;;6.95;2.50;;;;;;;;;;5012775;28;20026;-64
2021/08/09 03:53:17;;;;;;;5.63;2.40;;;;;;;;;;5014758;28;20076;-64
2021/08/09 03:55:43;;;;;;;2.97;2.28;;;;;;;;;;5007619;28;20497;-64
2021/08/09 03:58:09;;;;;;;3.97;1.90;;;;;;;;;;5016189;28;20034;-64
2021/08/09 04:00:37;;;;;;;3.22;2.15;;;;;;;;;;5009303;28;20033;-64
2021/08/09 04:03:04;;;;;;;3.42;2.03;;;;;;;;;;5014378;28;20033;-64
2021/08/09 04:05:30;;;;;;;3.65;2.10;;;;;;;;;;5011137;28;20131;-64
2021/08/09 04:07:56;;;;;;;4.53;1.85;;;;;;;;;;5008977;28;20034;-64
2021/08/09 04:10:22;;;;;;;3.55;1.88;;;;;;;;;;4999661;28;20046;-64
2021/08/09 04:12:48;;;;;;;3.05;1.83;;;;;;;;;;5007938;28;20462;-64
2021/08/09 04:15:14;;;;;;;4.38;1.98;;;;;;;;;;5003738;28;20025;-64
2021/08/09 04:17:40;;;;;;;3.47;1.95;;;;;;;;;;5008827;28;20022;-64
2021/08/09 04:20:06;;;;;;;4.95;2.30;;;;;;;;;;5013094;28;20033;-64
2021/08/09 04:22:32;;;;;;;3.05;1.88;;;;;;;;;;5011355;28;20061;-64
2021/08/09 04:24:58;;;;;;;4.50;1.80;;;;;;;;;;5012198;28;20034;-64
2021/08/09 04:27:24;;;;;;;5.15;1.85;;;;;;;;;;5011569;28;20040;-64
2021/08/09 04:29:50;;;;;;;2.95;1.83;;;;;;;;;;5013328;28;20037;-64
2021/08/09 04:32:16;;;;;;;2.10;1.67;;;;;;;;;;5013478;28;20018;-64
2021/08/09 04:34:43;;;;;;;5.43;1.77;;;;;;;;;;5010458;28;20057;-64
2021/08/09 04:37:09;;;;;;;5.55;2.10;;;;;;;;;;5008578;28;20046;-64
2021/08/09 04:39:35;;;;;;;4.95;2.17;;;;;;;;;;5013040;28;20033;-62
2021/08/09 04:42:01;;;;;;;3.53;1.80;;;;;;;;;;5013645;28;20041;-62
2021/08/09 04:44:27;;;;;;;7.20;2.22;;;;;;;;;;5010691;28;20030;-62
2021/08/09 04:46:55;;;;;;;3.03;1.65;;;;;;;;;;5009249;28;20034;-62
2021/08/09 04:49:21;;;;;;;3.75;2.15;;;;;;;;;;5010390;28;20069;-62
2021/08/09 04:51:47;;;;;;;3.97;2.05;;;;;;;;;;5012696;28;20030;-62
2021/08/09 04:54:13;;;;;;;7.30;2.60;;;;;;;;;;5006231;28;20037;-62
2021/08/09 04:56:39;;;;;;;4.07;2.30;;;;;;;;;;5010209;28;20408;-62
2021/08/09 04:59:05;;;;;;;4.28;2.15;;;;;;;;;;5005272;28;20030;-62
2021/08/09 05:01:31;;;;;;;3.55;2.17;;;;;;;;;;5005950;28;20034;-61
2021/08/09 05:03:57;;;;;;;3.40;2.20;;;;;;;;;;5011361;28;20596;-61
2021/08/09 05:06:24;;;;;;;3.53;2.03;;;;;;;;;;5011234;28;20145;-61
2021/08/09 05:08:50;;;;;;;3.90;2.05;;;;;;;;;;5012208;28;20494;-61
2021/08/09 05:11:16;;;;;;;3.80;1.70;;;;;;;;;;5010893;28;20029;-61
2021/08/09 05:13:42;;;;;;;5.60;2.17;;;;;;;;;;5008915;28;20057;-61
2021/08/09 05:16:08;;;;;;;4.93;2.47;;;;;;;;;;5012017;28;20081;-61
2021/08/09 05:18:34;;;;;;;5.65;2.00;;;;;;;;;;5007646;28;20025;-61
2021/08/09 05:21:00;;;;;;;4.57;2.25;;;;;;;;;;5005464;28;20405;-61
2021/08/09 05:23:26;;;;;;;1.95;1.73;;;;;;;;;;5012046;28;20026;-61
2021/08/09 05:25:52;;;;;;;4.15;2.03;;;;;;;;;;5011893;28;20037;-61
2021/08/09 05:28:18;;;;;;;3.85;1.98;;;;;;;;;;5012006;28;20127;-61
2021/08/09 05:30:44;;;;;;;2.00;1.60;;;;;;;;;;5011326;28;20068;-61
2021/08/09 05:33:10;;;;;;;4.35;1.75;;;;;;;;;;5012017;28;20043;-61
2021/08/09 05:35:38;;;;;;;3.33;1.67;;;;;;;;;;5010202;28;20033;-61
2021/08/09 05:38:04;;;;;;;3.28;1.95;;;;;;;;;;5011647;28;20037;-61
2021/08/09 05:40:30;;;;;;;1.98;1.55;;;;;;;;;;5006440;28;20038;-61
2021/08/09 05:42:56;;;;;;;2.20;1.88;;;;;;;;;;5010654;28;20037;-61
2021/08/09 05:45:22;;;;;;;4.35;1.98;;;;;;;;;;5004226;28;20033;-61
2021/08/09 05:47:48;;;;;;;4.82;1.88;;;;;;;;;;5011456;28;20026;-61
2021/08/09 05:50:14;;;;;;;6.63;1.70;;;;;;;;;;5009071;28;20056;-61
2021/08/09 05:52:40;;;;;;;7.00;1.80;;;;;;;;;;5004428;28;20481;-61
2021/08/09 05:55:08;;;;;;;4.15;1.60;;;;;;;;;;5010385;28;20098;-61
2021/08/09 05:57:34;;;;;;;3.38;1.70;;;;;;;;;;5003508;28;20030;-61
2021/08/09 06:00:00;;;;;;;3.22;1.40;;;;;;;;;;5009521;28;20453;-61
2021/08/09 06:02:26;;;;;;;2.20;1.58;;;;;;;;;;5010417;28;20037;-61
2021/08/09 06:04:52;;;;;;;3.92;1.70;;;;;;;;;;5008747;28;20018;-61
2021/08/09 06:07:18;;;;;;;3.83;1.80;;;;;;;;;;5012012;28;20034;-61
2021/08/09 06:09:45;;;;;;;5.07;1.40;;;;;;;;;;5010266;28;20096;-61
2021/08/09 06:12:11;;;;;;;4.88;1.80;;;;;;;;;;5012127;28;20018;-61
2021/08/09 06:14:38;;;;;;;2.00;1.58;;;;;;;;;;5010371;28;20137;-61
2021/08/09 06:17:05;;;;;;;4.85;1.83;;;;;;;;;;5011854;28;20113;-60
2021/08/09 06:19:31;;;;;;;1.92;1.40;;;;;;;;;;5004169;28;20030;-61
2021/08/09 06:21:57;;;;;;;2.67;1.70;;;;;;;;;;5003315;28;20022;-61
2021/08/09 06:24:23;;;;;;;3.00;1.40;;;;;;;;;;5004803;28;20037;-61
2021/08/09 06:26:49;;;;;;;6.05;1.52;;;;;;;;;;5011260;28;20034;-61
2021/08/09 06:29:15;;;;;;;4.18;1.50;;;;;;;;;;5008739;28;20389;-61
2021/08/09 06:31:41;;;;;;;4.90;1.40;;;;;;;;;;5006588;28;20026;-61
2021/08/09 06:34:08;;;;;;;3.53;1.92;;;;;;;;;;5003803;28;20041;-61
2021/08/09 06:36:33;;;;;;;3.58;1.38;;;;;;;;;;5002652;28;20112;-61
2021/08/09 06:38:59;;;;;;;5.35;1.55;;;;;;;;;;5000270;28;20034;-61
2021/08/09 06:41:31;;;;;;;2.40;1.60;;;;;;;;;;5011195;28;20034;-61
2021/08/09 06:43:57;;;;;;;4.10;1.55;;;;;;;;;;5003017;28;20033;-61
2021/08/09 06:46:23;;;;;;;7.40;1.73;;;;;;;;;;5005253;28;20038;-61
2021/08/09 06:48:49;;;;;;;4.07;1.50;;;;;;;;;;5007522;28;20053;-61
2021/08/09 06:51:15;;;;;;;2.33;1.00;;;;;;;;;;5007809;28;20362;-61
2021/08/09 06:53:41;;;;;;;3.05;1.20;;;;;;;;;;5015083;28;20492;-61
2021/08/09 06:56:07;;;;;;;5.22;1.70;;;;;;;;;;5015248;28;20096;-61
2021/08/09 06:58:33;;;;;;;3.08;1.50;;;;;;;;;;5015083;28;20022;-61
2021/08/09 07:00:59;;;;;;;4.68;1.40;;;;;;;;;;5015149;28;20030;-61
2021/08/09 07:03:25;;;;;;;2.97;1.42;;;;;;;;;;5015051;28;20045;-61
2021/08/09 07:05:51;;;;;;;5.05;1.50;;;;;;;;;;5015616;28;20034;-61
2021/08/09 07:08:16;;;;;;;3.03;1.75;;;;;;;;;;5003162;28;20462;-61
2021/08/09 07:10:44;;;;;;;2.78;1.30;;;;;;;;;;5012360;28;20022;-61
2021/08/09 07:13:10;;;;;;;9.43;1.38;;;;;;;;;;5015238;28;20040;-61
2021/08/09 07:15:36;;;;;;;3.58;1.50;;;;;;;;;;5013534;28;20382;-61
2021/08/09 07:18:02;;;;;;;5.95;1.52;;;;;;;;;;5013197;28;20046;-61
2021/08/09 07:20:29;;;;;;;2.40;1.42;;;;;;;;;;5013363;28;20117;-61
2021/08/09 07:22:55;;;;;;;8.48;1.50;;;;;;;;;;5014822;28;20069;-61
2021/08/09 07:25:21;;;;;;;2.95;1.35;;;;;;;;;;5014818;28;20057;-61
2021/08/09 07:27:47;;;;;;;2.83;1.33;;;;;;;;;;5000576;28;20400;-61
2021/08/09 07:30:14;;;;;;;2.42;1.40;;;;;;;;;;5013350;28;20073;-61
2021/08/09 07:32:40;;;;;;;4.93;1.83;;;;;;;;;;5014279;28;20129;-61
2021/08/09 07:35:07;;;;;;;4.32;1.40;;;;;;;;;;5002832;28;20116;-61
2021/08/09 07:37:33;;;;;;;2.78;1.40;;;;;;;;;;5005031;28;20061;-61
2021/08/09 07:39:59;;;;;;;1.98;1.10;;;;;;;;;;5014548;28;20108;-60
2021/08/09 07:42:25;;;;;;;4.40;1.25;;;;;;;;;;5011576;28;20667;-61
2021/08/09 07:44:51;;;;;;;2.08;1.02;;;;;;;;;;5014788;28;20030;-60
2021/08/09 07:47:17;;;;;;;7.63;1.50;;;;;;;;;;5012416;28;20112;-61
2021/08/09 07:49:43;;;;;;;6.82;1.27;;;;;;;;;;5007389;28;20034;-61
2021/08/09 07:52:09;;;;;;;5.90;2.45;;;;;;;;;;5004025;28;20437;-61
2021/08/09 07:54:35;;;;;;;6.35;2.15;;;;;;;;;;5012368;28;20029;-61
2021/08/09 07:57:04;;;;;;;3.72;1.42;;;;;;;;;;5009221;28;20045;-61
2021/08/09 07:59:30;;;;;;;2.50;1.20;;;;;;;;;;5009100;28;20030;-60
2021/08/09 08:01:56;;;;;;;4.68;1.25;;;;;;;;;;5008797;28;20037;-60
2021/08/09 08:04:22;;;;;;;2.75;1.50;;;;;;;;;;5008809;28;20474;-61
2021/08/09 08:06:48;;;;;;;2.55;1.35;;;;;;;;;;5011717;28;20088;-60
2021/08/09 08:09:14;;;;;;;3.60;1.40;;;;;;;;;;5003677;28;20046;-61
2021/08/09 08:11:40;;;;;;;4.75;1.60;;;;;;;;;;5013656;28;20030;-61
2021/08/09 08:14:06;;;;;;;2.38;1.30;;;;;;;;;;5013762;28;20038;-60
2021/08/09 08:16:31;;;;;;;6.47;1.67;;;;;;;;;;5006050;28;20483;-60
2021/08/09 08:18:57;;;;;;;6.50;1.52;;;;;;;;;;5009025;28;20057;-60
2021/08/09 08:21:23;;;;;;;5.88;1.65;;;;;;;;;;5010382;28;20374;-61
2021/08/09 08:23:49;;;;;;;3.58;1.60;;;;;;;;;;5010271;28;20026;-60
2021/08/09 08:26:15;;;;;;;3.72;1.20;;;;;;;;;;5010108;28;20029;-60
2021/08/09 08:28:42;;;;;;;3.28;1.35;;;;;;;;;;5009028;28;20457;-61
2021/08/09 08:31:07;;;;;;;3.67;1.70;;;;;;;;;;5012418;28;20370;-61
2021/08/09 08:33:33;;;;;;;7.18;1.40;;;;;;;;;;5010695;28;20035;-61
2021/08/09 08:35:59;;;;;;;6.70;1.58;;;;;;;;;;5012933;28;20104;-61
2021/08/09 08:38:25;;;;;;;3.75;1.40;;;;;;;;;;5013374;28;20030;-61
2021/08/09 08:40:53;;;;;;;2.45;1.23;;;;;;;;;;5002586;28;20022;-61
2021/08/09 08:43:23;;;;;;;6.82;1.20;;;;;;;;;;5005293;28;20057;-61
2021/08/09 08:46:00;;;;;;;5.82;1.67;;;;;;;;;;5022312;28;20041;-60
2021/08/09 08:48:26;;;;;;;5.05;1.65;;;;;;;;;;5012902;28;20113;-61
2021/08/09 08:50:53;;;;;;;4.68;1.83;;;;;;;;;;5012809;28;20050;-60
2021/08/09 08:53:19;;;;;;;5.68;1.35;;;;;;;;;;5008475;28;20116;-61
2021/08/09 08:55:46;;;;;;;5.07;1.75;;;;;;;;;;5013548;28;20026;-61
2021/08/09 08:58:12;;;;;;;3.90;1.33;;;;;;;;;;5010168;28;20026;-61
2021/08/09 09:00:38;;;;;;;4.10;1.50;;;;;;;;;;5011588;28;20382;-61
2021/08/09 09:03:06;;;;;;;3.65;1.60;;;;;;;;;;5010810;28;20037;-61
2021/08/09 09:05:33;;;;;;;3.20;1.73;;;;;;;;;;5013266;28;20486;-61
2021/08/09 09:07:59;;;;;;;4.70;1.58;;;;;;;;;;5000667;28;20105;-60
2021/08/09 09:10:29;;;;;;;3.85;1.40;;;;;;;;;;5012216;28;20042;-61
2021/08/09 09:13:05;;;;;;;2.85;1.20;;;;;;;;;;5013153;28;20052;-61
2021/08/09 09:15:31;;;;;;;4.68;1.55;;;;;;;;;;5004537;28;20022;-60
2021/08/09 09:17:57;;;;;;;3.67;1.30;;;;;;;;;;5008597;28;20080;-60
2021/08/09 09:20:23;;;;;;;3.15;1.60;;;;;;;;;;5005199;28;20042;-60
2021/08/09 09:22:49;;;;;;;5.28;1.52;;;;;;;;;;5015577;28;20029;-61
2021/08/09 09:25:16;;;;;;;5.03;1.55;;;;;;;;;;5009215;28;20429;-61
2021/08/09 09:27:42;;;;;;;6.53;1.60;;;;;;;;;;5007335;28;20026;-60
2021/08/09 09:30:27;;;;;;;4.65;1.27;;;;;;;;;;5008908;28;20494;-61
2021/08/09 09:33:00;;;;;;;2.70;1.50;;;;;;;;;;5009325;28;20500;-61
2021/08/09 09:35:26;;;;;;;3.88;1.30;;;;;;;;;;5003960;28;20026;-60
2021/08/09 09:37:52;;;;;;;3.40;1.55;;;;;;;;;;5012347;28;20033;-61
2021/08/09 09:40:20;;;;;;;2.70;1.10;;;;;;;;;;4999427;28;20034;-61
2021/08/09 09:42:46;;;;;;;4.72;1.48;;;;;;;;;;5009268;28;20351;-60
2021/08/09 09:45:19;;;;;;;5.60;1.70;;;;;;;;;;5009421;28;20084;-61
2021/08/09 09:47:45;;;;;;;;;;;;;;;;;;5010542;28;20037;-60
2021/08/09 09:50:24;;;;;;;6.35;1.52;;;;;;;;;;5009495;28;19913;-61
2021/08/09 09:52:50;;;;;;;8.45;1.73;;;;;;;;;;5022329;28;20037;-61
2021/08/09 09:55:16;;;;;;;5.25;2.03;;;;;;;;;;5003565;28;20097;-61
2021/08/09 09:57:44;;;;;;;3.55;1.27;;;;;;;;;;5005758;28;20029;-61
2021/08/09 10:00:12;;;;;;;4.65;1.35;;;;;;;;;;5008196;28;20478;-60
2021/08/09 10:02:42;;;;;;;5.72;1.52;;;;;;;;;;5008636;28;20140;-61
2021/08/09 10:05:08;;;;;;;6.30;1.60;;;;;;;;;;5011824;28;20106;-60
2021/08/09 10:07:35;;;;;;;4.70;1.50;;;;;;;;;;5011807;28;20111;-60
2021/08/09 10:10:02;;;;;;;3.70;1.33;;;;;;;;;;5001537;28;20055;-61
2021/08/09 10:12:32;;;;;;;2.15;1.27;;;;;;;;;;5010770;28;20169;-61
2021/08/09 10:14:59;;;;;;;6.32;1.55;;;;;;;;;;5012534;28;20040;-61
2021/08/09 10:17:26;;;;;;;4.53;1.02;;;;;;;;;;4997670;28;20104;-60
2021/08/09 10:20:00;;;;;;;6.95;1.70;;;;;;;;;;5008464;28;20501;-60
2021/08/09 10:22:26;;;;;;;4.13;1.50;;;;;;;;;;5012158;28;20136;-60
2021/08/09 10:24:54;;;;;;;5.90;1.45;;;;;;;;;;5012206;28;20123;-61
2021/08/09 10:27:39;;;;;;;5.47;1.50;;;;;;;;;;5011570;28;20041;-61
2021/08/09 10:30:05;;;;;;;3.45;1.10;;;;;;;;;;5012332;28;20029;-60
2021/08/09 10:32:48;;;;;;;3.75;1.23;;;;;;;;;;5013083;28;20034;-61
2021/08/09 10:35:32;;;;;;;3.28;1.20;;;;;;;;;;5007323;28;20057;-60
2021/08/09 10:38:13;;;;;;;4.00;1.10;;;;;;;;;;5003691;28;20034;-60
2021/08/09 10:40:39;;;;;;;2.38;1.15;;;;;;;;;;5013420;28;20040;-61
2021/08/09 10:43:05;;;;;;;6.82;1.23;;;;;;;;;;5002686;28;20105;-61
2021/08/09 10:45:37;;;;;;;3.40;1.23;;;;;;;;;;5005945;28;20378;-60
2021/08/09 10:48:04;;;;;;;4.65;1.10;;;;;;;;;;5002246;28;20422;-60
2021/08/09 10:50:36;;;;;;;3.50;0.90;;;;;;;;;;5015215;28;20488;-61
2021/08/09 10:53:02;;;;;;;2.60;0.85;;;;;;;;;;5006584;28;20037;-59
2021/08/09 10:55:31;;;;;;;3.63;1.20;;;;;;;;;;5001954;28;20022;-61
2021/08/09 10:57:58;;;;;;;7.95;1.58;;;;;;;;;;5008902;28;20393;-60
2021/08/09 11:00:50;;;;;;;3.45;1.45;;;;;;;;;;5001176;28;20120;-60
2021/08/09 11:03:18;;;;;;;2.45;0.88;;;;;;;;;;5007492;28;20486;-60
2021/08/09 11:05:43;;;;;;;2.97;1.00;;;;;;;;;;5010652;28;20524;-61
2021/08/09 11:08:16;;;;;;;6.45;1.60;;;;;;;;;;5013964;28;20029;-60
2021/08/09 11:11:01;;;;;;;2.88;1.00;;;;;;;;;;5014044;28;20056;-60
2021/08/09 11:13:53;;;;;;;3.25;0.85;;;;;;;;;;5012894;28;20030;-61
2021/08/09 11:16:31;;;;;;;8.88;1.45;;;;;;;;;;5004205;28;20401;-61
2021/08/09 11:18:57;;;;;;;2.92;1.00;;;;;;;;;;5002167;28;20030;-60
2021/08/09 11:21:24;;;;;;;4.90;1.38;;;;;;;;;;5014913;28;20477;-61
2021/08/09 11:23:50;;;;;;;4.60;0.75;;;;;;;;;;5014733;28;20038;-60
2021/08/09 11:26:21;;;;;;;2.63;0.98;;;;;;;;;;5013942;28;20038;-60
2021/08/09 11:28:57;;;;;;;1.88;0.80;;;;;;;;;;5001193;28;20042;-60
2021/08/09 11:31:23;;;;;;;3.53;1.38;;;;;;;;;;5000415;28;20057;-60
2021/08/09 11:33:49;;;;;;;3.38;1.50;;;;;;;;;;5006956;28;20592;-60
2021/08/09 11:36:16;;;;;;;2.13;1.00;;;;;;;;;;5006498;28;20064;-60
2021/08/09 11:38:47;;;;;;;2.83;0.98;;;;;;;;;;5004828;28;20738;-60
2021/08/09 11:41:14;;;;;;;4.93;1.30;;;;;;;;;;5006754;28;20030;-60
2021/08/09 11:43:40;;;;;;;2.00;0.80;;;;;;;;;;5011279;28;20367;-61
2021/08/09 11:46:08;;;;;;;3.20;1.00;;;;;;;;;;5006011;28;20382;-61
2021/08/09 11:48:35;;;;;;;2.00;1.05;;;;;;;;;;5010712;28;20038;-60
2021/08/09 11:51:03;;;;;;;2.28;1.00;;;;;;;;;;5008573;28;20470;-60
2021/08/09 11:53:29;;;;;;;5.57;1.13;;;;;;;;;;5011276;28;20022;-61
2021/08/09 11:56:08;;;;;;;2.95;1.25;;;;;;;;;;5007623;28;20503;-61
2021/08/09 11:58:34;;;;;;;3.75;1.23;;;;;;;;;;5009593;28;20040;-61
2021/08/09 12:01:01;;;;;;;2.95;1.17;;;;;;;;;;5012404;28;20059;-61
2021/08/09 12:03:27;;;;;;;3.95;1.00;;;;;;;;;;5013713;28;20030;-61
2021/08/09 12:06:16;;;;;;;6.63;1.08;;;;;;;;;;5013554;28;20695;-60
2021/08/09 12:08:55;;;;;;;1.65;0.90;;;;;;;;;;5011613;28;20052;-61
2021/08/09 12:11:28;;;;;;;4.15;1.00;;;;;;;;;;5013165;28;20917;-61
2021/08/09 12:13:54;;;;;;;;;;;;;;;;;;5012534;28;20029;-60
2021/08/09 12:16:20;;;;;;;3.63;1.13;;;;;;;;;;5009187;28;19949;-60
2021/08/09 12:18:53;;;;;;;2.25;1.13;;;;;;;;;;5010341;28;20029;-61
2021/08/09 12:21:20;;;;;;;2.20;0.88;;;;;;;;;;5007843;28;20080;-61
2021/08/09 12:23:51;;;;;;;3.72;1.00;;;;;;;;;;4998096;28;20041;-61
2021/08/09 12:26:35;;;;;;;2.60;1.05;;;;;;;;;;5001853;28;20065;-61
2021/08/09 12:29:02;;;;;;;2.42;0.95;;;;;;;;;;5010312;28;20066;-61
2021/08/09 12:31:47;;;;;;;2.15;0.80;;;;;;;;;;5021293;28;20034;-61
2021/08/09 12:34:18;;;;;;;5.60;1.10;;;;;;;;;;5012758;28;20413;-61
2021/08/09 12:36:44;;;;;;;3.85;0.98;;;;;;;;;;5007258;28;20041;-61
2021/08/09 12:39:11;;;;;;;2.97;0.75;;;;;;;;;;5006832;28;20037;-61
2021/08/09 12:41:37;;;;;;;3.28;0.90;;;;;;;;;;5011278;28;20035;-61
2021/08/09 12:44:05;;;;;;;2.72;0.80;;;;;;;;;;5013273;28;20038;-61
2021/08/09 12:46:32;;;;;;;3.08;1.58;;;;;;;;;;5008508;28;20097;-61
2021/08/09 12:48:58;;;;;;;2.17;0.82;;;;;;;;;;5008775;28;20033;-61
2021/08/09 12:51:24;;;;;;;2.70;1.10;;;;;;;;;;5008455;28;20042;-61
2021/08/09 12:53:50;;;;;;;4.65;1.45;;;;;;;;;;5012536;28;20029;-61
2021/08/09 12:56:16;;;;;;;2.42;1.15;;;;;;;;;;4998454;28;20465;-61
2021/08/09 12:58:42;;;;;;;3.45;0.90;;;;;;;;;;5008715;28;20052;-61
2021/08/09 13:01:09;;;;;;;1.65;0.95;;;;;;;;;;5012073;28;20390;-61
2021/08/09 13:03:35;;;;;;;3.50;0.90;;;;;;;;;;5012245;28;20105;-64
2021/08/09 13:06:02;;;;;;;2.65;0.85;;;;;;;;;;5009344;28;20030;-61
2021/08/09 13:08:29;;;;;;;1.23;0.77;;;;;;;;;;5012411;28;20056;-61
2021/08/09 13:10:56;;;;;;;3.55;0.85;;;;;;;;;;5011938;28;20022;-61
2021/08/09 13:13:22;;;;;;;2.53;0.93;;;;;;;;;;5011491;28;20026;-61
2021/08/09 13:15:48;;;;;;;1.90;1.10;;;;;;;;;;5010359;28;20021;-61
2021/08/09 13:18:14;;;;;;;2.55;0.98;;;;;;;;;;5012218;28;20117;-61
2021/08/09 13:20:40;;;;;;;2.92;0.98;;;;;;;;;;5012052;28;20104;-61
2021/08/09 13:23:06;;;;;;;4.78;0.95;;;;;;;;;;5006245;28;20424;-61
2021/08/09 13:25:35;;;;;;;3.15;0.85;;;;;;;;;;5011988;28;20426;-61
2021/08/09 13:28:01;;;;;;;3.13;1.13;;;;;;;;;;5010125;28;20048;-61
2021/08/09 13:30:27;;;;;;;1.73;0.90;;;;;;;;;;5012266;28;20120;-61
2021/08/09 13:32:53;;;;;;;2.53;1.13;;;;;;;;;;5012045;28;20045;-61
2021/08/09 13:35:19;;;;;;;1.60;0.70;;;;;;;;;;5011893;28;20034;-61
2021/08/09 13:37:45;;;;;;;3.78;1.05;;;;;;;;;;5011476;28;20683;-61
2021/08/09 13:40:12;;;;;;;2.83;0.95;;;;;;;;;;5010257;28;20072;-61
2021/08/09 13:42:37;;;;;;;2.70;1.02;;;;;;;;;;5006807;28;20057;-61
2021/08/09 13:45:04;;;;;;;4.60;0.88;;;;;;;;;;5011309;28;20056;-61
2021/08/09 13:47:31;;;;;;;3.03;1.00;;;;;;;;;;5012055;28;20092;-61
2021/08/09 13:50:02;;;;;;;1.65;0.85;;;;;;;;;;5007486;28;20045;-61
2021/08/09 13:52:28;;;;;;;4.03;1.00;;;;;;;;;;5000635;28;20383;-61
2021/08/09 13:54:54;;;;;;;4.13;1.20;;;;;;;;;;5010188;28;20041;-61
2021/08/09 13:57:20;;;;;;;2.92;1.00;;;;;;;;;;5007552;28;20026;-61
2021/08/09 13:59:46;;;;;;;4.22;1.15;;;;;;;;;;5010971;28;20371;-61
2021/08/09 14:02:12;;;;;;;2.80;1.00;;;;;;;;;;5010470;28;20029;-61
2021/08/09 14:04:39;;;;;;;2.25;1.10;;;;;;;;;;5009449;28;20064;-61
2021/08/09 14:07:05;;;;;;;2.30;1.02;;;;;;;;;;5010795;28;20382;-61
2021/08/09 14:09:31;;;;;;;3.33;1.05;;;;;;;;;;5010351;28;20109;-61
2021/08/09 14:11:58;;;;;;;2.65;1.00;;;;;;;;;;5011184;28;20049;-61
2021/08/09 14:14:24;;;;;;;4.03;0.90;;;;;;;;;;5010665;28;20041;-61
2021/08/09 14:16:50;;;;;;;3.63;1.20;;;;;;;;;;5011343;28;20105;-61
2021/08/09 14:19:16;;;;;;;3.55;0.90;;;;;;;;;;5012075;28;20030;-61
2021/08/09 14:21:42;;;;;;;5.78;1.00;;;;;;;;;;5004670;28;20497;-61
2021/08/09 14:24:08;;;;;;;3.10;1.20;;;;;;;;;;5010926;28;20417;-62
2021/08/09 14:26:34;;;;;;;3.55;1.13;;;;;;;;;;5008800;28;20034;-61
2021/08/09 14:29:01;;;;;;;3.45;1.00;;;;;;;;;;5011265;28;20478;-61
2021/08/09 14:31:27;;;;;;;4.63;1.00;;;;;;;;;;5010071;28;20034;-61
2021/08/09 14:33:53;;;;;;;3.10;1.23;;;;;;;;;;5010187;28;20458;-62
2021/08/09 14:36:20;;;;;;;3.42;0.93;;;;;;;;;;5013536;28;20044;-62
2021/08/09 14:38:46;;;;;;;4.18;0.90;;;;;;;;;;5010553;28;20679;-62
2021/08/09 14:41:13;;;;;;;3.00;1.10;;;;;;;;;;5010723;28;20029;-62
2021/08/09 14:43:39;;;;;;;2.45;0.80;;;;;;;;;;5004615;28;20022;-62